Time;durP1;ratioP1;P1;durP2;ratioP2;P2;SDS_P1;SDS_P2;PMS_P1;PMS_P2;Temp;Humidity;BMP_temperature;BMP_pressure;BME280_temperature;BME280_humidity;BME280_pressure;Samples;Min_cycle;Max_cycle;Signal;HPM_P1;HPM_P2
2022/08/02 00:03:36;;;;;;;19.40;14.60;;;;;;;17.66;100.00;99019.53;4088865;86;21512;-84
2022/08/02 00:09:38;;;;;;;16.32;13.25;;;;;;;17.69;100.00;99020.06;4075068;86;21056;-84
2022/08/02 00:15:39;;;;;;;20.43;14.07;;;;;;;17.74;100.00;99022.95;4074664;86;21063;-84
2022/08/02 00:21:50;;;;;;;14.68;13.20;;;;;;;17.76;100.00;99027.47;4081504;86;21135;-84
2022/08/02 00:27:51;;;;;;;18.60;14.98;;;;;;;17.70;100.00;99029.92;4062941;86;21120;-84
2022/08/02 00:33:53;;;;;;;15.70;12.03;;;;;;;17.69;100.00;99033.91;4066412;86;21121;-84
2022/08/02 00:39:56;;;;;;;18.23;12.60;;;;;;;17.70;100.00;99032.69;4073852;86;21042;-84
2022/08/02 00:45:57;;;;;;;19.50;13.20;;;;;;;17.73;100.00;99031.84;4067952;86;21016;-84
2022/08/02 00:52:00;;;;;;;17.55;13.53;;;;;;;17.72;100.00;99034.45;4067904;86;21571;-84
2022/08/02 00:58:01;;;;;;;19.23;14.23;;;;;;;17.72;100.00;99041.96;4075651;86;21050;-84
2022/08/02 01:04:13;;;;;;;16.27;13.45;;;;;;;17.58;100.00;99051.29;4067272;86;21088;-83
2022/08/02 01:10:14;;;;;;;20.82;15.25;;;;;;;17.51;100.00;99058.93;4064522;86;21143;-85
2022/08/02 01:16:21;;;;;;;21.87;15.03;;;;;;;17.55;100.00;99066.56;4055456;86;21029;-84
2022/08/02 01:23:26;;;;;;;17.87;15.55;;;;;;;17.58;100.00;99061.57;4066243;86;21108;-84
2022/08/02 01:29:41;;;;;;;17.05;15.18;;;;;;;17.59;100.00;99066.69;4036152;86;21574;-84
2022/08/02 01:35:48;;;;;;;18.02;15.60;;;;;;;17.64;100.00;99069.58;4057798;86;20995;-84
2022/08/02 01:42:10;;;;;;;30.50;16.10;;;;;;;17.64;100.00;99073.73;4047187;86;21412;-84
2022/08/02 01:48:13;;;;;;;16.35;13.85;;;;;;;17.65;100.00;99073.31;4053196;86;21064;-83
2022/08/02 01:54:37;;;;;;;20.32;14.28;;;;;;;17.71;100.00;99073.00;4029853;86;21125;-84
2022/08/02 02:00:40;;;;;;;19.50;14.33;;;;;;;17.75;100.00;99072.36;4054640;86;21027;-84
2022/08/02 02:06:57;;;;;;;16.52;14.55;;;;;;;17.81;100.00;99075.42;4051325;86;21495;-84
2022/08/02 02:13:08;;;;;;;15.63;13.70;;;;;;;17.87;100.00;99080.69;4060273;86;21106;-83
2022/08/02 02:19:15;;;;;;;17.20;13.30;;;;;;;17.90;100.00;99080.61;4056364;86;21134;-84
2022/08/02 02:25:21;;;;;;;15.18;13.20;;;;;;;17.93;100.00;99079.00;4064900;86;21163;-84
2022/08/02 02:31:23;;;;;;;18.50;14.60;;;;;;;17.93;100.00;99074.84;4079585;86;21002;-83
2022/08/02 02:37:27;;;;;;;17.80;13.48;;;;;;;17.94;100.00;99084.11;4072964;86;21021;-83
2022/08/02 02:43:31;;;;;;;15.55;13.75;;;;;;;17.95;100.00;99082.90;4073034;86;21031;-84
2022/08/02 02:49:35;;;;;;;18.15;14.58;;;;;;;17.97;100.00;99088.02;4077803;86;21004;-83
2022/08/02 02:55:55;;;;;;;20.75;16.00;;;;;;;17.98;100.00;99084.06;4079234;86;21072;-84
2022/08/02 03:01:57;;;;;;;26.25;18.00;;;;;;;17.98;100.00;99084.06;4071590;86;22293;-83
2022/08/02 03:07:58;;;;;;;27.25;17.40;;;;;;;17.97;100.00;99085.25;4076953;86;21942;-84
2022/08/02 03:14:03;;;;;;;23.30;17.12;;;;;;;17.99;100.00;99096.69;4065522;86;21031;-84
2022/08/02 03:20:18;;;;;;;28.25;19.05;;;;;;;17.97;100.00;99086.03;4076680;86;21064;-83
2022/08/02 03:26:20;;;;;;;31.75;22.02;;;;;;;17.97;100.00;99089.40;4069196;86;21032;-84
2022/08/02 03:32:46;;;;;;;29.27;20.08;;;;;;;17.97;100.00;99087.42;4075297;86;21106;-84
2022/08/02 03:38:50;;;;;;;27.98;21.20;;;;;;;17.97;100.00;99096.33;4081287;86;21051;-84
2022/08/02 03:44:55;;;;;;;32.42;23.20;;;;;;;17.99;100.00;99092.54;4080832;86;21139;-84
2022/08/02 03:50:57;;;;;;;32.23;21.33;;;;;;;17.98;100.00;99098.67;4095452;85;21030;-84
2022/08/02 03:57:00;;;;;;;28.70;20.75;;;;;;;18.00;100.00;99102.41;4091383;85;21084;-84
2022/08/02 04:03:03;;;;;;;32.93;20.88;;;;;;;18.02;100.00;99110.48;4098730;86;21020;-83
2022/08/02 04:09:04;;;;;;;33.02;22.07;;;;;;;18.04;100.00;99117.75;4089145;86;20999;-83
2022/08/02 04:15:09;;;;;;;32.20;22.20;;;;;;;18.04;100.00;99126.06;3990361;88;21045;-84
2022/08/02 04:21:16;;;;;;;30.48;22.42;;;;;;;18.05;100.00;99129.03;4068033;86;21072;-84
2022/08/02 04:27:19;;;;;;;34.98;23.40;;;;;;;18.05;100.00;99136.55;4086021;86;21001;-84
2022/08/02 04:33:39;;;;;;;29.45;20.82;;;;;;;18.06;100.00;99133.95;4115189;86;21586;-83
2022/08/02 04:39:42;;;;;;;29.98;21.50;;;;;;;18.06;100.00;99150.57;4093799;86;21061;-84
2022/08/02 04:45:46;;;;;;;33.30;22.20;;;;;;;18.05;100.00;99148.42;4091781;86;21000;-83
2022/08/02 04:51:47;;;;;;;34.27;22.75;;;;;;;18.08;100.00;99146.78;4090008;86;21055;-83
2022/08/02 04:57:54;;;;;;;31.48;22.15;;;;;;;18.10;100.00;99150.69;4099752;86;21060;-83
2022/08/02 05:03:56;;;;;;;30.27;21.35;;;;;;;18.10;100.00;99153.45;4094629;86;21036;-84
2022/08/02 05:09:57;;;;;;;30.30;21.65;;;;;;;18.15;100.00;99157.14;4097487;86;21024;-84
2022/08/02 05:16:01;;;;;;;27.67;21.12;;;;;;;18.17;100.00;99171.37;4082066;85;21949;-83
2022/08/02 05:22:03;;;;;;;29.50;20.20;;;;;;;18.21;100.00;99169.31;3994019;87;21045;-82
2022/08/02 05:28:04;;;;;;;30.05;19.05;;;;;;;18.26;100.00;99177.77;4082111;85;21036;-83
2022/08/02 05:34:07;;;;;;;36.40;21.50;;;;;;;18.30;100.00;99170.95;4076236;85;21524;-84
2022/08/02 05:40:09;;;;;;;37.28;23.52;;;;;;;18.35;100.00;99169.69;4075894;85;21080;-84
2022/08/02 05:46:11;;;;;;;34.53;22.30;;;;;;;18.41;100.00;99174.36;4080506;86;21081;-84
2022/08/02 05:52:18;;;;;;;32.65;21.25;;;;;;;18.48;100.00;99185.30;4094876;85;21091;-84
2022/08/02 05:58:29;;;;;;;34.00;22.80;;;;;;;18.50;100.00;99184.88;4079700;85;21076;-84
2022/08/02 06:04:45;;;;;;;34.48;22.85;;;;;;;18.53;100.00;99191.76;4083167;85;21027;-84
2022/08/02 06:10:47;;;;;;;33.30;20.82;;;;;;;18.61;100.00;99188.25;4067997;85;21076;-84
2022/08/02 06:16:50;;;;;;;31.02;18.70;;;;;;;18.78;100.00;99196.84;4072469;85;21566;-85
2022/08/02 06:22:54;;;;;;;29.20;18.50;;;;;;;18.87;100.00;99197.06;4090400;86;21447;-84
2022/08/02 06:28:57;;;;;;;23.85;17.48;;;;;;;18.96;100.00;99208.41;4087026;86;21074;-83
2022/08/02 06:34:59;;;;;;;25.32;17.40;;;;;;;19.04;100.00;99212.61;4091512;86;21012;-84
2022/08/02 06:41:13;;;;;;;26.52;17.65;;;;;;;19.07;100.00;99225.63;4086882;85;21009;-83
2022/08/02 06:47:15;;;;;;;20.25;16.55;;;;;;;19.07;100.00;99234.55;4079460;85;20988;-84
2022/08/02 06:53:16;;;;;;;20.27;15.85;;;;;;;19.15;100.00;99237.36;4078548;85;21123;-85
2022/08/02 06:59:18;;;;;;;20.55;16.05;;;;;;;19.35;100.00;99238.18;4084046;85;21103;-86
2022/08/02 07:05:19;;;;;;;17.15;14.20;;;;;;;19.56;100.00;99232.96;4080096;85;21671;-84
2022/08/02 07:11:22;;;;;;;20.50;14.80;;;;;;;19.79;100.00;99233.47;4081495;85;21567;-85
2022/08/02 07:17:24;;;;;;;15.30;12.50;;;;;;;19.92;100.00;99234.38;4089353;85;21078;-85
2022/08/02 07:23:26;;;;;;;15.43;13.20;;;;;;;20.05;100.00;99234.65;4082019;85;21027;-85
2022/08/02 07:29:30;;;;;;;15.78;12.20;;;;;;;20.31;100.00;99228.72;4080157;85;21082;-85
2022/08/02 07:35:32;;;;;;;13.58;12.28;;;;;;;20.48;100.00;99237.83;4071644;86;21344;-86
2022/08/02 07:41:33;;;;;;;13.45;12.00;;;;;;;20.49;100.00;99233.81;4075960;86;21035;-85
2022/08/02 07:47:39;;;;;;;14.23;12.35;;;;;;;20.59;100.00;99243.30;4086581;86;21385;-85
2022/08/02 07:53:40;;;;;;;14.50;11.30;;;;;;;20.83;100.00;99250.21;4075969;86;21035;-84
2022/08/02 07:59:42;;;;;;;13.10;11.22;;;;;;;20.84;100.00;99246.23;4074093;86;21912;-85
2022/08/02 08:05:43;;;;;;;13.43;11.40;;;;;;;20.89;100.00;99247.70;3971967;88;21564;-85
2022/08/02 08:11:44;;;;;;;13.80;11.10;;;;;;;21.12;100.00;99251.67;3950652;88;22306;-85
2022/08/02 08:17:46;;;;;;;13.45;10.20;;;;;;;21.64;100.00;99257.11;3953965;88;21146;-84
2022/08/02 08:23:47;;;;;;;9.38;8.48;;;;;;;21.99;100.00;99254.55;3986147;88;21059;-84
2022/08/02 08:29:49;;;;;;;10.60;8.95;;;;;;;22.46;100.00;99251.21;3995889;88;21039;-85
2022/08/02 08:35:52;;;;;;;10.58;6.80;;;;;;;22.75;100.00;99252.67;4072650;86;21531;-84
2022/08/02 08:41:53;;;;;;;6.50;5.45;;;;;;;22.94;100.00;99240.41;4075606;86;21076;-84
2022/08/02 08:48:17;;;;;;;7.50;6.05;;;;;;;23.05;100.00;99239.43;4071844;85;21507;-85
2022/08/02 08:54:20;;;;;;;8.78;6.08;;;;;;;23.11;100.00;99241.04;4066659;86;20992;-85
2022/08/02 09:00:23;;;;;;;5.42;4.90;;;;;;;23.29;100.00;99246.78;4010742;86;21008;-85
2022/08/02 09:06:24;;;;;;;6.70;4.90;;;;;;;23.44;99.85;99252.64;4074552;86;21799;-85
2022/08/02 09:12:26;;;;;;;7.67;4.87;;;;;;;23.45;99.05;99243.80;4073567;86;21027;-85
2022/08/02 09:18:38;;;;;;;5.12;3.77;;;;;;;23.63;98.25;99245.34;4073658;86;21603;-84
2022/08/02 09:24:48;;;;;;;4.58;4.17;;;;;;;23.64;95.73;99258.06;3985734;87;21557;-85
2022/08/02 09:30:51;;;;;;;3.70;3.37;;;;;;;23.92;96.32;99251.39;4081653;86;21610;-85
2022/08/02 09:36:52;;;;;;;4.40;3.50;;;;;;;24.59;94.77;99252.30;4079632;86;21117;-85
2022/08/02 09:43:00;;;;;;;4.55;3.40;;;;;;;25.27;92.80;99252.41;4079095;85;21071;-86
2022/08/02 09:49:15;;;;;;;5.45;3.70;;;;;;;25.51;92.46;99249.13;4083154;85;21052;-84
2022/08/02 09:55:16;;;;;;;3.80;3.40;;;;;;;25.84;91.09;99246.44;4084784;85;21060;-84
2022/08/02 10:01:20;;;;;;;4.87;3.87;;;;;;;26.06;87.94;99243.57;4077877;85;21086;-84
2022/08/02 10:07:35;;;;;;;4.20;3.80;;;;;;;25.84;87.90;99244.39;4058018;85;21090;-84
2022/08/02 10:13:45;;;;;;;7.35;4.15;;;;;;;26.80;86.63;99232.13;4085765;85;21036;-84
2022/08/02 10:19:47;;;;;;;5.10;4.17;;;;;;;27.53;84.31;99226.85;4077183;85;21339;-84
2022/08/02 10:25:52;;;;;;;4.72;4.15;;;;;;;27.58;82.62;99227.59;4067681;86;21069;-84
2022/08/02 10:31:58;;;;;;;5.07;4.57;;;;;;;27.87;81.35;99226.81;4067820;86;21112;-84
2022/08/02 10:38:06;;;;;;;6.75;5.60;;;;;;;27.46;78.43;99227.25;4088262;86;21031;-84
2022/08/02 10:44:07;;;;;;;5.35;4.85;;;;;;;26.32;78.42;99234.11;4087366;86;21005;-83
2022/08/02 10:50:10;;;;;;;5.92;4.33;;;;;;;25.86;78.61;99225.07;4065899;86;21925;-84
2022/08/02 10:56:11;;;;;;;6.40;4.50;;;;;;;26.71;77.60;99225.96;4074867;86;21714;-84
2022/08/02 11:02:15;;;;;;;5.30;4.80;;;;;;;27.57;75.99;99220.42;4074513;85;21121;-84
2022/08/02 11:08:23;;;;;;;7.15;5.40;;;;;;;28.38;74.49;99227.14;4065873;86;21581;-85
2022/08/02 11:14:26;;;;;;;7.20;5.95;;;;;;;27.76;73.14;99227.25;4073716;86;21044;-85
2022/08/02 11:20:27;;;;;;;7.33;5.53;;;;;;;27.10;73.12;99240.81;4058397;85;21460;-85
2022/08/02 11:26:40;;;;;;;7.67;6.12;;;;;;;27.14;72.61;99232.98;4055682;86;21043;-83
2022/08/02 11:32:42;;;;;;;7.28;6.58;;;;;;;27.00;72.01;99223.89;4027765;86;21055;-84
2022/08/02 11:38:44;;;;;;;7.40;6.40;;;;;;;27.49;71.76;99227.69;4030999;87;21915;-84
2022/08/02 11:44:48;;;;;;;7.97;7.25;;;;;;;27.58;69.28;99223.99;4036413;86;21115;-84
2022/08/02 11:51:03;;;;;;;9.45;7.35;;;;;;;27.22;69.15;99229.30;4027294;86;21048;-83
2022/08/02 11:57:13;;;;;;;8.27;7.50;;;;;;;26.61;68.98;99234.25;4029473;86;21067;-84
2022/08/02 12:03:14;;;;;;;9.13;8.28;;;;;;;26.39;68.65;99230.95;4027598;86;21004;-84
2022/08/02 12:09:16;;;;;;;9.85;8.85;;;;;;;26.14;68.90;99227.95;4027142;86;21563;-84
2022/08/02 12:15:40;;;;;;;16.23;9.03;;;;;;;25.89;68.57;99230.34;4025857;87;21083;-83
2022/08/02 12:21:42;;;;;;;12.35;11.05;;;;;;;25.52;68.62;99218.47;4032760;86;21056;-83
2022/08/02 12:27:44;;;;;;;13.25;12.05;;;;;;;25.40;68.85;99222.84;4044718;86;21082;-84
2022/08/02 12:33:49;;;;;;;13.80;12.43;;;;;;;25.33;68.62;99218.92;4072411;86;21096;-83
2022/08/02 12:39:53;;;;;;;13.85;11.93;;;;;;;25.34;68.11;99217.72;4067616;86;21027;-83
2022/08/02 12:45:56;;;;;;;12.58;11.38;;;;;;;25.15;68.04;99228.11;4066833;86;21565;-83
2022/08/02 12:51:58;;;;;;;11.57;10.45;;;;;;;25.16;68.98;99222.68;4067266;86;21600;-84
2022/08/02 12:58:04;;;;;;;15.10;12.58;;;;;;;25.28;68.91;99216.13;4055426;86;21029;-84
2022/08/02 13:04:06;;;;;;;13.85;12.65;;;;;;;25.23;68.27;99222.99;4075118;86;21027;-84
2022/08/02 13:10:08;;;;;;;13.62;12.33;;;;;;;24.95;68.05;99205.40;4063251;86;21562;-83
2022/08/02 13:16:10;;;;;;;11.90;10.78;;;;;;;24.95;68.33;99208.84;4068456;86;21025;-83
2022/08/02 13:22:12;;;;;;;13.00;11.80;;;;;;;24.92;68.33;99190.93;4070907;86;21021;-84
2022/08/02 13:28:13;;;;;;;12.53;11.30;;;;;;;25.08;68.56;99194.03;4075506;86;20996;-84
2022/08/02 13:34:15;;;;;;;13.68;11.97;;;;;;;25.07;68.20;99189.69;4069550;86;21535;-84
2022/08/02 13:40:16;;;;;;;11.25;10.25;;;;;;;25.07;68.20;99189.69;4075062;86;22070;-84
2022/08/02 13:46:19;;;;;;;11.93;10.93;;;;;;;24.92;67.78;99213.33;4078976;86;21061;-84
2022/08/02 13:52:20;;;;;;;11.53;10.32;;;;;;;24.86;68.41;99213.02;4067231;86;21039;-83
2022/08/02 13:58:21;;;;;;;9.98;9.08;;;;;;;24.89;68.42;99212.08;4072411;86;21175;-83
2022/08/02 14:04:24;;;;;;;10.70;8.95;;;;;;;24.91;68.05;99210.39;4066596;86;21298;-84
2022/08/02 14:10:26;;;;;;;9.68;7.08;;;;;;;25.12;66.61;99203.08;4069710;86;21621;-83
2022/08/02 14:16:29;;;;;;;9.25;7.28;;;;;;;25.12;66.61;99203.08;4067939;86;21116;-83
2022/08/02 14:22:31;;;;;;;10.58;7.00;;;;;;;25.04;67.08;99201.83;4069180;85;21129;-83
2022/08/02 14:28:33;;;;;;;7.45;6.62;;;;;;;24.94;66.56;99205.25;4065183;85;21163;-83
2022/08/02 14:34:34;;;;;;;6.95;5.85;;;;;;;24.75;66.53;99202.28;4066525;85;21502;-83
2022/08/02 14:40:36;;;;;;;6.22;5.72;;;;;;;24.75;66.20;99191.70;4067984;86;21147;-83
2022/08/02 14:46:40;;;;;;;7.20;6.60;;;;;;;24.61;66.39;99188.25;4070100;86;21545;-82
2022/08/02 14:52:41;;;;;;;7.62;6.90;;;;;;;24.37;66.93;99197.05;4067273;86;21074;-83
2022/08/02 14:58:43;;;;;;;12.23;7.17;;;;;;;24.19;67.24;99189.23;4068699;86;22415;-83
2022/08/02 15:04:44;;;;;;;7.40;6.80;;;;;;;24.08;68.22;99195.88;4071741;86;21035;-82
2022/08/02 15:10:46;;;;;;;6.25;5.75;;;;;;;24.15;68.62;99190.02;4067822;86;21026;-83
2022/08/02 15:16:48;;;;;;;7.05;6.37;;;;;;;24.20;68.71;99183.79;4068718;86;21011;-83
2022/08/02 15:22:50;;;;;;;7.25;6.55;;;;;;;24.33;68.53;99192.23;4063545;86;21565;-83
2022/08/02 15:28:57;;;;;;;8.23;7.47;;;;;;;24.44;67.96;99193.97;4065249;86;21469;-83
2022/08/02 15:34:58;;;;;;;9.55;7.95;;;;;;;24.53;68.20;99191.80;4049814;86;21042;-83
2022/08/02 15:41:00;;;;;;;8.90;7.10;;;;;;;24.65;68.26;99185.28;4053451;86;21132;-83
2022/08/02 15:47:03;;;;;;;7.92;6.60;;;;;;;24.65;68.49;99192.27;4052578;86;21003;-83
2022/08/02 15:53:04;;;;;;;9.40;7.20;;;;;;;24.57;68.26;99203.00;4065852;86;21037;-83
2022/08/02 15:59:05;;;;;;;8.23;7.47;;;;;;;24.44;68.28;99205.78;4052700;86;21094;-83
2022/08/02 16:05:07;;;;;;;8.25;7.42;;;;;;;24.27;68.11;99209.48;4053855;86;21046;-83
2022/08/02 16:11:09;;;;;;;9.90;7.65;;;;;;;24.14;68.75;99209.41;4049057;86;22036;-83
2022/08/02 16:17:10;;;;;;;8.13;7.33;;;;;;;24.01;68.87;99211.53;4053250;86;21039;-83
2022/08/02 16:23:11;;;;;;;10.25;6.90;;;;;;;23.94;69.08;99206.20;4050784;86;21527;-83
2022/08/02 16:29:15;;;;;;;8.65;6.87;;;;;;;23.87;69.27;99203.67;4045248;86;21125;-83
2022/08/02 16:35:17;;;;;;;10.48;7.10;;;;;;;23.78;69.57;99205.81;4045003;86;21074;-83
2022/08/02 16:41:20;;;;;;;9.05;7.00;;;;;;;23.70;69.72;99209.33;4048823;86;21536;-83
2022/08/02 16:47:22;;;;;;;7.62;6.90;;;;;;;23.54;69.79;99209.58;4070826;86;21856;-83
2022/08/02 16:53:23;;;;;;;7.67;5.50;;;;;;;23.46;70.19;99211.83;4045549;86;21943;-82
2022/08/02 16:59:25;;;;;;;7.75;5.00;;;;;;;23.39;70.39;99206.52;4017391;86;21027;-83
2022/08/02 17:05:29;;;;;;;6.65;5.33;;;;;;;23.32;70.48;99208.80;4054068;86;21114;-83
2022/08/02 17:11:30;;;;;;;9.58;5.95;;;;;;;23.22;70.83;99212.88;4025128;86;21074;-83
2022/08/02 17:17:31;;;;;;;8.23;5.70;;;;;;;23.13;70.99;99215.61;4047573;86;21099;-83
2022/08/02 17:23:33;;;;;;;8.55;5.92;;;;;;;23.05;71.67;99214.30;4048409;86;21008;-83
2022/08/02 17:29:35;;;;;;;6.37;5.78;;;;;;;22.93;72.11;99220.72;4066972;85;21133;-83
2022/08/02 17:35:36;;;;;;;7.30;6.58;;;;;;;22.82;72.37;99225.89;4094185;85;21121;-83
2022/08/02 17:41:37;;;;;;;6.35;5.33;;;;;;;22.75;72.82;99230.34;4102500;85;21005;-83
2022/08/02 17:47:40;;;;;;;8.00;5.28;;;;;;;22.65;73.17;99230.68;4084049;86;21009;-82
2022/08/02 17:53:41;;;;;;;6.45;5.75;;;;;;;22.51;73.29;99243.11;4074849;86;21054;-83
2022/08/02 17:59:57;;;;;;;6.78;6.08;;;;;;;22.33;73.72;99237.28;4068450;86;21060;-82
2022/08/02 18:05:58;;;;;;;6.33;5.55;;;;;;;22.27;74.20;99237.68;4074422;86;21093;-83
2022/08/02 18:11:59;;;;;;;7.75;6.35;;;;;;;22.13;74.29;99240.92;4062204;86;21031;-83
2022/08/02 18:18:01;;;;;;;9.05;6.25;;;;;;;22.03;75.03;99233.69;3958022;86;10000332;-82
2022/08/02 18:24:03;;;;;;;22.48;10.32;;;;;;;21.91;75.42;99245.59;4072597;86;21000;-82
2022/08/02 18:30:07;;;;;;;16.65;9.45;;;;;;;21.76;76.19;99252.83;4065957;86;21063;-84
2022/08/02 18:36:10;;;;;;;35.88;16.00;;;;;;;21.57;76.69;99257.34;4075534;86;20993;-82
2022/08/02 18:42:11;;;;;;;21.60;10.72;;;;;;;21.36;77.40;99250.97;4064007;86;21975;-83
2022/08/02 18:48:13;;;;;;;20.75;10.88;;;;;;;21.16;78.04;99258.70;4062446;86;21786;-83
2022/08/02 18:54:15;;;;;;;8.83;7.40;;;;;;;20.84;78.57;99262.13;4074518;87;21021;-83
2022/08/02 19:00:17;;;;;;;20.15;11.25;;;;;;;20.62;79.15;99273.02;4067176;86;21524;-83
2022/08/02 19:06:18;;;;;;;32.75;15.45;;;;;;;20.53;80.16;99265.88;4065946;86;21011;-83
2022/08/02 19:12:20;;;;;;;26.68;14.00;;;;;;;20.43;80.95;99281.44;4070692;86;21120;-83
2022/08/02 19:18:21;;;;;;;12.30;10.30;;;;;;;20.29;82.02;99290.91;4076717;86;21029;-82
2022/08/02 19:24:23;;;;;;;23.67;13.78;;;;;;;20.07;81.87;99291.98;4071078;86;21727;-82
2022/08/02 19:30:24;;;;;;;30.20;18.45;;;;;;;19.87;82.71;99302.31;4062050;86;22037;-82
2022/08/02 19:36:25;;;;;;;29.70;18.57;;;;;;;19.74;83.20;99313.92;4059376;86;21066;-85
2022/08/02 19:42:27;;;;;;;28.05;16.70;;;;;;;19.53;82.75;99320.52;4031553;87;21068;-82
2022/08/02 19:48:28;;;;;;;22.17;15.13;;;;;;;19.28;84.56;99318.20;4038792;87;21088;-83
2022/08/02 19:54:30;;;;;;;21.20;14.70;;;;;;;19.24;85.00;99321.63;4042079;87;21064;-82
2022/08/02 20:00:32;;;;;;;23.05;13.93;;;;;;;19.10;85.30;99321.89;4039639;86;21071;-82
2022/08/02 20:06:33;;;;;;;24.82;14.87;;;;;;;19.08;86.30;99331.83;4043386;87;21313;-82
2022/08/02 20:12:35;;;;;;;22.15;14.47;;;;;;;19.04;86.80;99325.56;4036038;87;22279;-82
2022/08/02 20:18:36;;;;;;;24.12;15.23;;;;;;;19.03;87.25;99325.40;3975700;88;22017;-82
2022/08/02 20:24:37;;;;;;;31.70;17.30;;;;;;;18.99;87.62;99319.11;3971178;89;21079;-82
2022/08/02 20:30:39;;;;;;;46.75;20.37;;;;;;;18.88;87.98;99317.13;4061324;86;21399;-82
2022/08/02 20:36:41;;;;;;;32.00;18.25;;;;;;;18.75;88.41;99323.88;4065629;86;22098;-82
2022/08/02 20:42:42;;;;;;;32.45;15.78;;;;;;;18.62;88.96;99318.14;4076104;87;20993;-81
2022/08/02 20:48:43;;;;;;;37.03;19.95;;;;;;;18.52;89.53;99325.25;4060947;86;21050;-82
2022/08/02 20:54:45;;;;;;;38.33;23.40;;;;;;;18.37;90.07;99325.27;4067089;86;20985;-82
2022/08/02 21:00:46;;;;;;;44.15;25.05;;;;;;;18.29;90.52;99324.55;4065075;86;21921;-82
2022/08/02 21:06:47;;;;;;;36.98;20.05;;;;;;;18.16;90.92;99320.80;4072862;86;21838;-82
2022/08/02 21:12:49;;;;;;;35.35;19.95;;;;;;;18.07;91.35;99316.36;4062051;86;21954;-82
2022/08/02 21:18:54;;;;;;;32.42;21.45;;;;;;;18.00;91.68;99322.02;3954466;86;9999988;-82
2022/08/02 21:24:54;;;;;;;27.40;19.85;;;;;;;17.89;92.09;99314.45;4061705;86;21065;-82
2022/08/02 21:30:55;;;;;;;31.15;20.37;;;;;;;17.85;92.63;99319.85;4069259;86;21185;-81
2022/08/02 21:36:57;;;;;;;22.48;16.17;;;;;;;17.83;92.97;99325.80;4085568;86;21000;-82
2022/08/02 21:42:58;;;;;;;29.27;14.73;;;;;;;17.85;93.56;99325.39;4069206;86;20984;-82
2022/08/02 21:49:01;;;;;;;20.77;14.23;;;;;;;17.75;93.69;99317.40;4067570;86;21032;-82
2022/08/02 21:55:03;;;;;;;20.62;15.55;;;;;;;17.70;94.28;99326.74;4054027;86;21024;-82
2022/08/02 22:01:04;;;;;;;17.87;13.65;;;;;;;17.63;93.99;99329.03;4069338;86;21827;-82
2022/08/02 22:07:05;;;;;;;20.00;15.50;;;;;;;17.45;94.26;99327.05;4065147;85;21020;-81
2022/08/02 22:13:06;;;;;;;19.17;16.07;;;;;;;17.37;94.33;99324.75;4055454;86;21929;-82
2022/08/02 22:19:07;;;;;;;18.23;12.65;;;;;;;17.27;94.62;99320.11;3858217;88;9999828;-82
2022/08/02 22:25:09;;;;;;;22.22;14.10;;;;;;;17.07;94.74;99323.45;3970148;88;21526;-82
2022/08/02 22:31:10;;;;;;;19.50;12.82;;;;;;;17.01;95.40;99317.39;3983699;87;21161;-81
2022/08/02 22:37:11;;;;;;;19.25;14.03;;;;;;;17.07;96.38;99322.66;4029663;88;21015;-81
2022/08/02 22:43:13;;;;;;;19.55;14.95;;;;;;;17.06;96.38;99326.05;4081451;86;20988;-81
2022/08/02 22:49:14;;;;;;;24.02;14.33;;;;;;;16.99;96.21;99335.78;4072736;86;21001;-82
2022/08/02 22:55:15;;;;;;;23.10;16.00;;;;;;;16.86;96.06;99331.97;4082690;86;21886;-81
2022/08/02 23:01:18;;;;;;;16.73;13.43;;;;;;;16.75;96.38;99331.27;4074122;86;21075;-81
2022/08/02 23:07:19;;;;;;;18.27;15.18;;;;;;;16.55;95.63;99336.37;4102273;85;21036;-81
2022/08/02 23:13:20;;;;;;;19.00;14.73;;;;;;;16.39;96.68;99340.20;4069614;86;21028;-82
2022/08/02 23:25:41;;;;;;;16.52;13.85;;;;;;;16.45;98.05;99330.31;4074026;86;21100;-81
2022/08/02 23:31:43;;;;;;;16.95;15.28;;;;;;;16.47;98.14;99327.34;4072116;86;21944;-82
2022/08/02 23:37:44;;;;;;;17.37;15.53;;;;;;;16.42;98.05;99325.56;4066910;86;21002;-81
2022/08/02 23:43:47;;;;;;;15.78;13.80;;;;;;;16.31;97.98;99320.70;4075506;86;21602;-81
2022/08/02 23:49:48;;;;;;;17.35;14.15;;;;;;;16.10;97.37;99319.48;4075458;86;21096;-81
2022/08/02 23:55:50;;;;;;;15.40;13.88;;;;;;;16.08;98.41;99319.09;4075890;86;20977;-81
